Time;durP1;ratioP1;P1;durP2;ratioP2;P2;SDS_P1;SDS_P2;PMS_P1;PMS_P2;Temp;Humidity;BMP_temperature;BMP_pressure;BME280_temperature;BME280_humidity;BME280_pressure;Samples;Min_cycle;Max_cycle;Signal;HPM_P1;HPM_P2
2021/03/02 00:01:10;;;;;;;84.87;28.73;;;4.50;99.90;;;;;;5084196;28;20196;-75
2021/03/02 00:03:37;;;;;;;80.83;27.13;;;4.50;99.90;;;;;;5085072;28;20207;-75
2021/03/02 00:06:06;;;;;;;85.57;28.87;;;4.40;99.90;;;;;;5080485;28;20328;-75
2021/03/02 00:08:33;;;;;;;85.87;30.00;;;4.40;99.90;;;;;;5081869;28;20206;-76
2021/03/02 00:11:00;;;;;;;85.97;28.27;;;4.40;99.90;;;;;;5085209;28;20675;-76
2021/03/02 00:13:27;;;;;;;85.37;28.17;;;4.40;99.90;;;;;;5083528;28;20204;-75
2021/03/02 00:15:54;;;;;;;92.90;29.63;;;4.40;99.90;;;;;;5082631;28;20217;-75
2021/03/02 00:18:24;;;;;;;87.33;28.90;;;4.30;99.90;;;;;;5084668;28;20598;-75
2021/03/02 00:20:55;;;;;;;92.03;29.93;;;4.40;99.90;;;;;;5084061;28;20213;-75
2021/03/02 00:23:26;;;;;;;90.13;28.97;;;4.40;99.90;;;;;;5073943;28;20687;-75
2021/03/02 00:25:56;;;;;;;95.20;30.37;;;4.40;99.90;;;;;;5074217;28;20272;-76
2021/03/02 00:28:25;;;;;;;89.37;29.47;;;4.30;99.90;;;;;;5073880;28;20207;-75
2021/03/02 00:30:53;;;;;;;82.83;28.80;;;4.30;99.90;;;;;;5073963;28;20202;-75
2021/03/02 00:33:22;;;;;;;92.30;30.37;;;4.30;99.90;;;;;;5073913;28;20200;-75
2021/03/02 00:35:48;;;;;;;84.63;29.60;;;4.30;99.90;;;;;;5073706;28;20201;-75
2021/03/02 00:38:15;;;;;;;97.40;31.90;;;4.40;99.90;;;;;;5073996;28;20197;-75
2021/03/02 00:40:42;;;;;;;96.00;29.43;;;4.30;99.90;;;;;;5073922;28;20294;-76
2021/03/02 00:43:09;;;;;;;96.73;30.83;;;4.30;99.90;;;;;;5073794;28;20195;-75
2021/03/02 00:45:36;;;;;;;88.70;30.20;;;4.20;99.90;;;;;;5073679;28;20227;-75
2021/03/02 00:48:02;;;;;;;102.40;31.50;;;4.20;99.90;;;;;;5073809;28;20682;-75
2021/03/02 00:50:29;;;;;;;85.37;29.00;;;4.20;99.90;;;;;;5073704;28;20578;-75
2021/03/02 00:52:55;;;;;;;87.00;30.77;;;4.10;99.90;;;;;;5073685;28;20270;-75
2021/03/02 00:55:22;;;;;;;87.10;29.80;;;4.20;99.90;;;;;;5073663;28;20247;-75
2021/03/02 00:57:49;;;;;;;94.60;30.10;;;4.20;99.90;;;;;;5073540;28;20200;-75
2021/03/02 01:00:16;;;;;;;88.40;30.33;;;4.20;99.90;;;;;;5073524;28;20212;-75
2021/03/02 01:02:43;;;;;;;83.17;28.13;;;4.00;99.90;;;;;;5073280;28;20201;-75
2021/03/02 01:05:10;;;;;;;93.53;29.50;;;3.80;99.90;;;;;;5073524;28;20202;-75
2021/03/02 01:07:37;;;;;;;91.60;29.77;;;3.80;99.90;;;;;;5073262;28;20663;-75
2021/03/02 01:10:05;;;;;;;94.33;30.37;;;3.90;99.90;;;;;;5073521;28;20206;-75
2021/03/02 01:12:31;;;;;;;100.17;31.57;;;4.00;99.90;;;;;;5073479;28;20196;-75
2021/03/02 01:15:00;;;;;;;90.40;29.83;;;4.00;99.90;;;;;;5073293;28;20213;-75
2021/03/02 01:17:27;;;;;;;105.43;31.33;;;4.00;99.90;;;;;;5073090;28;20208;-75
2021/03/02 01:19:53;;;;;;;98.67;31.07;;;4.00;99.90;;;;;;5073446;28;20291;-75
2021/03/02 01:22:20;;;;;;;99.80;30.90;;;4.10;99.90;;;;;;5073112;28;20255;-75
2021/03/02 01:24:46;;;;;;;95.60;29.70;;;4.10;99.90;;;;;;5073451;28;20209;-75
2021/03/02 01:27:13;;;;;;;98.93;32.60;;;4.10;99.90;;;;;;5072549;28;20712;-75
2021/03/02 01:29:39;;;;;;;99.97;32.20;;;4.00;99.90;;;;;;5073049;28;20733;-75
2021/03/02 01:32:07;;;;;;;100.60;31.47;;;3.90;99.90;;;;;;5073059;28;20198;-75
2021/03/02 01:34:33;;;;;;;93.77;29.87;;;3.80;99.90;;;;;;5073236;28;20247;-75
2021/03/02 01:37:00;;;;;;;94.60;31.13;;;3.80;99.90;;;;;;5072972;28;20196;-75
2021/03/02 01:39:26;;;;;;;95.63;30.10;;;3.80;99.90;;;;;;5073211;28;20200;-75
2021/03/02 01:41:54;;;;;;;96.27;30.23;;;3.90;99.90;;;;;;5073040;28;20577;-76
2021/03/02 01:44:20;;;;;;;100.93;30.30;;;3.90;99.90;;;;;;5072713;28;20569;-75
2021/03/02 01:46:50;;;;;;;100.30;30.90;;;3.80;99.90;;;;;;5072628;28;20219;-76
2021/03/02 01:49:18;;;;;;;93.30;31.00;;;3.80;99.90;;;;;;5073075;28;20207;-75
2021/03/02 01:51:44;;;;;;;92.73;31.57;;;4.00;99.90;;;;;;5072971;28;20228;-75
2021/03/02 01:54:12;;;;;;;106.00;31.77;;;4.00;99.90;;;;;;5072819;28;20207;-75
2021/03/02 01:56:38;;;;;;;93.47;30.73;;;4.00;99.90;;;;;;5072830;28;20190;-75
2021/03/02 01:59:05;;;;;;;96.03;30.40;;;3.90;99.90;;;;;;5072590;28;20284;-75
2021/03/02 02:01:32;;;;;;;92.73;28.83;;;3.90;99.90;;;;;;5072913;28;20207;-75
2021/03/02 02:04:05;;;;;;;99.57;31.17;;;3.90;99.90;;;;;;5072635;28;20205;-75
2021/03/02 02:06:40;;;;;;;98.87;31.63;;;3.90;99.90;;;;;;5072578;28;20622;-75
2021/03/02 02:09:14;;;;;;;99.93;30.87;;;3.80;99.90;;;;;;5072512;28;20249;-75
2021/03/02 02:11:47;;;;;;;100.73;28.80;;;3.80;99.90;;;;;;5072589;28;20255;-75
2021/03/02 02:14:21;;;;;;;89.83;30.10;;;3.70;99.90;;;;;;5072653;28;20283;-75
2021/03/02 02:16:51;;;;;;;92.60;30.00;;;3.60;99.90;;;;;;5072617;28;20203;-75
2021/03/02 02:19:39;;;;;;;98.37;30.67;;;3.60;99.90;;;;;;5072685;28;20208;-76
2021/03/02 02:22:12;;;;;;;96.27;30.33;;;3.60;99.90;;;;;;5072419;28;20197;-75
2021/03/02 02:24:50;;;;;;;107.63;32.00;;;3.60;99.90;;;;;;5072630;28;20215;-75
2021/03/02 02:27:17;;;;;;;106.17;31.00;;;3.60;99.90;;;;;;5072600;28;20224;-75
2021/03/02 02:29:44;;;;;;;102.43;31.07;;;3.70;99.90;;;;;;5072552;28;20202;-75
2021/03/02 02:32:11;;;;;;;109.13;32.20;;;3.70;99.90;;;;;;5072501;28;20208;-75
2021/03/02 02:34:39;;;;;;;106.20;32.13;;;3.60;99.90;;;;;;5072792;28;20209;-75
2021/03/02 02:37:06;;;;;;;101.20;31.03;;;3.60;99.90;;;;;;5072792;28;20204;-75
2021/03/02 02:39:35;;;;;;;109.73;32.20;;;3.60;99.90;;;;;;5075650;28;20199;-75
2021/03/02 02:42:03;;;;;;;101.47;31.60;;;3.60;99.90;;;;;;5076298;28;20654;-75
2021/03/02 02:44:32;;;;;;;106.20;31.10;;;3.60;99.90;;;;;;5075893;28;20208;-75
2021/03/02 02:47:00;;;;;;;105.83;32.33;;;3.70;99.90;;;;;;5075687;28;20229;-75
2021/03/02 02:49:28;;;;;;;102.13;31.50;;;3.70;99.90;;;;;;5075818;28;20657;-75
2021/03/02 02:51:55;;;;;;;109.73;32.33;;;3.70;99.90;;;;;;5076128;28;20204;-75
2021/03/02 02:54:22;;;;;;;113.27;31.63;;;3.70;99.90;;;;;;5075914;28;20664;-75
2021/03/02 02:56:50;;;;;;;108.87;33.07;;;3.60;99.90;;;;;;5075649;28;20207;-75
2021/03/02 02:59:21;;;;;;;106.73;31.33;;;3.60;99.90;;;;;;5075583;28;20662;-75
2021/03/02 03:01:52;;;;;;;99.87;31.57;;;3.60;99.90;;;;;;5076120;28;20209;-76
2021/03/02 03:04:21;;;;;;;104.00;30.40;;;3.40;99.90;;;;;;5075751;28;20213;-75
2021/03/02 03:06:50;;;;;;;94.97;30.93;;;3.50;99.90;;;;;;5075637;28;20287;-75
2021/03/02 03:09:20;;;;;;;101.27;30.97;;;3.50;99.90;;;;;;5075420;28;20206;-75
2021/03/02 03:11:51;;;;;;;105.63;32.00;;;3.50;99.90;;;;;;5075358;28;20236;-75
2021/03/02 03:14:19;;;;;;;104.97;31.20;;;3.50;99.90;;;;;;5075329;28;20262;-75
2021/03/02 03:16:46;;;;;;;99.53;31.37;;;3.40;99.90;;;;;;5075494;28;20547;-75
2021/03/02 03:19:18;;;;;;;108.03;32.77;;;3.40;99.90;;;;;;5075454;28;20197;-75
2021/03/02 03:21:45;;;;;;;101.27;31.90;;;3.40;99.90;;;;;;5075392;28;20223;-75
2021/03/02 03:24:12;;;;;;;106.13;31.27;;;3.40;99.90;;;;;;5075182;28;20201;-75
2021/03/02 03:26:39;;;;;;;112.00;32.27;;;3.40;99.90;;;;;;5074939;28;20229;-75
2021/03/02 03:29:06;;;;;;;110.10;33.57;;;3.40;99.90;;;;;;5075224;28;20200;-75
2021/03/02 03:31:32;;;;;;;123.80;33.63;;;3.50;99.90;;;;;;5075169;28;20197;-75
2021/03/02 03:33:59;;;;;;;106.33;31.17;;;3.40;99.90;;;;;;5075276;28;20201;-75
2021/03/02 03:36:29;;;;;;;108.07;32.57;;;3.40;99.90;;;;;;5074960;28;20347;-75
2021/03/02 03:38:56;;;;;;;109.37;31.43;;;3.40;99.90;;;;;;5074852;28;20573;-75
2021/03/02 03:41:22;;;;;;;107.10;30.87;;;3.40;99.90;;;;;;5074986;28;20199;-76
2021/03/02 03:43:48;;;;;;;110.20;31.87;;;3.50;99.90;;;;;;5074946;28;20205;-75
2021/03/02 03:46:15;;;;;;;112.27;30.10;;;3.50;99.90;;;;;;5074796;28;20229;-75
2021/03/02 03:48:41;;;;;;;103.73;30.73;;;3.50;99.90;;;;;;5074483;28;20295;-76
2021/03/02 03:51:08;;;;;;;108.80;31.07;;;3.40;99.90;;;;;;5074718;28;20204;-75
2021/03/02 03:53:39;;;;;;;104.03;30.63;;;3.30;99.90;;;;;;5074566;28;20197;-75
2021/03/02 03:56:07;;;;;;;110.20;31.13;;;3.20;99.90;;;;;;5074883;28;20204;-75
2021/03/02 03:58:34;;;;;;;107.00;30.87;;;3.10;99.90;;;;;;5074517;28;20205;-75
2021/03/02 04:01:03;;;;;;;102.60;31.67;;;3.10;99.90;;;;;;5074587;28;20200;-75
2021/03/02 04:03:32;;;;;;;108.27;33.40;;;3.10;99.90;;;;;;5074648;28;20282;-75
2021/03/02 04:06:00;;;;;;;113.53;32.57;;;3.20;99.90;;;;;;5074185;28;20220;-75
2021/03/02 04:08:27;;;;;;;113.80;31.40;;;3.20;99.90;;;;;;5074258;28;20197;-75
2021/03/02 04:10:54;;;;;;;109.87;32.27;;;3.20;99.90;;;;;;5074193;28;20670;-75
2021/03/02 04:13:21;;;;;;;110.90;31.57;;;3.20;99.90;;;;;;5074345;28;20212;-75
2021/03/02 04:15:48;;;;;;;120.87;33.23;;;3.30;99.90;;;;;;5074021;28;20208;-75
2021/03/02 04:18:15;;;;;;;110.77;30.93;;;3.30;99.90;;;;;;5074052;28;20224;-75
2021/03/02 04:20:43;;;;;;;105.50;32.07;;;3.40;99.90;;;;;;5073936;28;20203;-75
2021/03/02 04:23:10;;;;;;;108.00;30.63;;;3.30;99.90;;;;;;5073884;28;20308;-75
2021/03/02 04:25:36;;;;;;;108.10;31.37;;;3.20;99.90;;;;;;5074057;28;20212;-75
2021/03/02 04:28:05;;;;;;;110.60;32.13;;;3.30;99.90;;;;;;5074137;28;20648;-76
2021/03/02 04:30:31;;;;;;;109.00;30.50;;;3.20;99.90;;;;;;5073839;28;20204;-76
2021/03/02 04:32:57;;;;;;;99.30;29.87;;;3.20;99.90;;;;;;5073740;28;20731;-76
2021/03/02 04:35:24;;;;;;;98.10;30.63;;;3.30;99.90;;;;;;5073874;28;20200;-76
2021/03/02 04:37:51;;;;;;;111.23;31.27;;;3.20;99.90;;;;;;5074060;28;20196;-76
2021/03/02 04:40:18;;;;;;;109.10;31.83;;;3.20;99.90;;;;;;5073853;28;20209;-76
2021/03/02 04:42:45;;;;;;;116.43;32.30;;;3.20;99.90;;;;;;5073849;28;20202;-76
2021/03/02 04:45:14;;;;;;;110.07;31.90;;;3.10;99.90;;;;;;5073884;28;20207;-76
2021/03/02 04:47:41;;;;;;;114.03;29.90;;;3.10;99.90;;;;;;5073498;28;20230;-76
2021/03/02 04:50:09;;;;;;;105.27;29.50;;;3.10;99.90;;;;;;5073468;28;20201;-76
2021/03/02 04:52:35;;;;;;;106.60;29.73;;;3.10;99.90;;;;;;5073437;28;20666;-76
2021/03/02 04:55:02;;;;;;;115.30;32.50;;;3.10;99.90;;;;;;5073603;28;20204;-76
2021/03/02 04:57:28;;;;;;;114.47;32.77;;;3.10;99.90;;;;;;5073305;28;20291;-76
2021/03/02 04:59:55;;;;;;;115.53;32.30;;;3.10;99.90;;;;;;5073251;28;20200;-76
2021/03/02 05:02:22;;;;;;;112.90;30.37;;;3.10;99.90;;;;;;5072922;28;20207;-76
2021/03/02 05:04:48;;;;;;;116.17;31.67;;;3.20;99.90;;;;;;5073582;28;20565;-76
2021/03/02 05:07:14;;;;;;;126.63;32.57;;;3.20;99.90;;;;;;5073400;28;20229;-76
2021/03/02 05:09:41;;;;;;;116.40;32.03;;;3.20;99.90;;;;;;5073313;28;20559;-76
2021/03/02 05:12:08;;;;;;;115.77;30.93;;;3.10;99.90;;;;;;5073370;28;20205;-76
2021/03/02 05:14:34;;;;;;;119.80;33.30;;;3.20;99.90;;;;;;5073233;28;20244;-76
2021/03/02 05:17:00;;;;;;;118.93;32.53;;;3.20;99.90;;;;;;5073235;28;20216;-76
2021/03/02 05:19:28;;;;;;;130.90;36.03;;;3.10;99.90;;;;;;5073474;28;20450;-76
2021/03/02 05:21:54;;;;;;;131.93;34.00;;;3.10;99.90;;;;;;5073228;28;20211;-76
2021/03/02 05:24:20;;;;;;;127.03;34.13;;;3.10;99.90;;;;;;5073259;28;20608;-76
2021/03/02 05:26:47;;;;;;;126.37;32.53;;;3.10;99.90;;;;;;5071212;28;20599;-75
2021/03/02 05:29:13;;;;;;;111.37;32.10;;;3.00;99.90;;;;;;5072161;28;20197;-75
2021/03/02 05:31:39;;;;;;;123.20;34.63;;;3.00;99.90;;;;;;5072946;28;20206;-75
2021/03/02 05:34:06;;;;;;;115.43;32.53;;;3.00;99.90;;;;;;5072344;28;20250;-75
2021/03/02 05:36:33;;;;;;;123.47;32.33;;;3.10;99.90;;;;;;5072974;28;20192;-75
2021/03/02 05:38:59;;;;;;;111.93;31.37;;;3.00;99.90;;;;;;5072894;28;20206;-75
2021/03/02 05:41:26;;;;;;;124.43;33.50;;;3.10;99.90;;;;;;5072859;28;20568;-75
2021/03/02 05:43:53;;;;;;;115.90;31.83;;;3.00;99.90;;;;;;5073041;28;20215;-75
2021/03/02 05:46:22;;;;;;;120.43;31.37;;;3.00;99.90;;;;;;5072860;28;20298;-75
2021/03/02 05:48:49;;;;;;;101.40;28.60;;;3.00;99.90;;;;;;5073084;28;20208;-75
2021/03/02 05:51:17;;;;;;;107.67;31.10;;;3.00;99.90;;;;;;5072501;28;20193;-75
2021/03/02 05:53:45;;;;;;;116.47;31.33;;;2.80;99.90;;;;;;5071243;28;20204;-75
2021/03/02 05:56:11;;;;;;;108.07;30.80;;;2.90;99.90;;;;;;5072204;28;20246;-75
2021/03/02 05:58:38;;;;;;;112.47;32.00;;;2.90;99.90;;;;;;5089974;28;20200;-75
2021/03/02 06:01:05;;;;;;;120.87;31.63;;;2.80;99.90;;;;;;5092517;28;20225;-75
2021/03/02 06:03:35;;;;;;;113.50;30.97;;;2.80;99.90;;;;;;5093342;28;20197;-75
2021/03/02 06:06:01;;;;;;;108.70;30.57;;;2.80;99.90;;;;;;5092751;28;20236;-75
2021/03/02 06:08:28;;;;;;;102.53;29.50;;;2.60;99.90;;;;;;5093067;28;20398;-75
2021/03/02 06:10:55;;;;;;;100.23;29.67;;;2.60;99.90;;;;;;5082035;28;20209;-75
2021/03/02 06:13:26;;;;;;;114.30;28.90;;;2.60;99.90;;;;;;5072746;28;20204;-75
2021/03/02 06:15:54;;;;;;;107.73;28.37;;;2.60;99.90;;;;;;5075300;28;20281;-75
2021/03/02 06:18:21;;;;;;;108.87;29.80;;;2.60;99.90;;;;;;5075660;28;20209;-75
2021/03/02 06:20:48;;;;;;;110.27;29.47;;;2.70;99.90;;;;;;5076191;28;20227;-75
2021/03/02 06:23:23;;;;;;;104.83;29.47;;;2.70;99.90;;;;;;5076031;28;20657;-75
2021/03/02 06:25:49;;;;;;;113.40;29.47;;;2.70;99.90;;;;;;5075756;28;20261;-76
2021/03/02 06:28:38;;;;;;;96.63;27.83;;;2.70;99.90;;;;;;5076176;28;20261;-76
2021/03/02 06:31:05;;;;;;;92.30;26.63;;;2.70;99.90;;;;;;5075906;28;20291;-76
2021/03/02 06:33:32;;;;;;;96.70;27.67;;;2.70;99.90;;;;;;5075830;28;20597;-75
2021/03/02 06:35:58;;;;;;;107.23;28.97;;;2.70;99.90;;;;;;5075851;28;20213;-75
2021/03/02 06:38:30;;;;;;;94.77;27.73;;;2.60;99.90;;;;;;5075621;28;20201;-75
2021/03/02 06:40:57;;;;;;;106.73;28.93;;;2.60;99.90;;;;;;5075706;28;20292;-75
2021/03/02 06:43:35;;;;;;;102.40;28.53;;;2.60;99.90;;;;;;5075723;28;20205;-75
2021/03/02 06:46:03;;;;;;;113.07;29.43;;;2.70;99.90;;;;;;5075762;28;20585;-75
2021/03/02 06:48:31;;;;;;;105.60;28.47;;;2.80;99.90;;;;;;5075749;28;20208;-76
2021/03/02 06:50:58;;;;;;;102.80;29.90;;;2.90;99.90;;;;;;5075532;28;20204;-76
2021/03/02 06:53:24;;;;;;;108.23;30.43;;;2.90;99.90;;;;;;5075384;28;20203;-76
2021/03/02 06:55:50;;;;;;;120.70;31.37;;;3.00;99.90;;;;;;5055142;28;20221;-76
2021/03/02 06:58:19;;;;;;;113.13;30.63;;;3.00;99.90;;;;;;5060997;28;20590;-76
2021/03/02 07:00:49;;;;;;;104.73;30.53;;;3.00;99.90;;;;;;5072512;28;20706;-76
2021/03/02 07:03:27;;;;;;;109.67;30.60;;;3.10;99.90;;;;;;5062754;28;20684;-76
2021/03/02 07:05:55;;;;;;;112.80;30.07;;;3.10;99.90;;;;;;5092199;28;20200;-76
2021/03/02 07:08:22;;;;;;;101.70;29.90;;;3.20;99.90;;;;;;5073757;28;20236;-76
2021/03/02 07:10:53;;;;;;;118.27;31.07;;;3.10;99.90;;;;;;5068563;28;20216;-76
2021/03/02 07:13:20;;;;;;;110.43;29.17;;;3.20;99.90;;;;;;5075185;28;20269;-76
2021/03/02 07:15:50;;;;;;;127.73;32.57;;;3.20;99.90;;;;;;5073458;28;20545;-76
2021/03/02 07:18:19;;;;;;;101.50;29.40;;;3.30;99.90;;;;;;5089913;28;20214;-76
2021/03/02 07:20:48;;;;;;;121.07;31.40;;;3.30;99.90;;;;;;5084691;28;20240;-76
2021/03/02 07:23:21;;;;;;;102.47;29.83;;;3.30;99.90;;;;;;5074672;28;20200;-76
2021/03/02 07:25:49;;;;;;;101.43;28.97;;;3.40;99.90;;;;;;5075129;28;20205;-76
2021/03/02 07:28:19;;;;;;;96.47;27.93;;;3.50;99.90;;;;;;5074857;28;20269;-76
2021/03/02 07:30:47;;;;;;;94.40;28.27;;;3.60;99.90;;;;;;5075200;28;20190;-76
2021/03/02 07:33:14;;;;;;;88.20;29.07;;;3.70;99.90;;;;;;5074636;28;20616;-76
2021/03/02 07:35:41;;;;;;;94.80;29.17;;;3.70;99.90;;;;;;5080684;28;20575;-76
2021/03/02 07:38:16;;;;;;;91.00;28.47;;;3.80;99.90;;;;;;5095022;28;20235;-76
2021/03/02 07:40:44;;;;;;;89.40;28.07;;;3.90;99.90;;;;;;5083870;28;20212;-76
2021/03/02 07:43:26;;;;;;;105.73;31.30;;;4.00;99.90;;;;;;5074856;28;20206;-76
2021/03/02 07:45:55;;;;;;;84.53;28.60;;;4.10;99.90;;;;;;5072834;28;20308;-76
2021/03/02 07:48:26;;;;;;;97.13;30.13;;;4.30;99.90;;;;;;5074513;28;20209;-76
2021/03/02 07:51:17;;;;;;;97.20;30.00;;;4.50;99.90;;;;;;5074437;28;20472;-76
2021/03/02 07:53:45;;;;;;;93.03;29.43;;;4.60;99.90;;;;;;5074794;28;20270;-76
2021/03/02 07:56:21;;;;;;;90.33;29.43;;;4.70;99.90;;;;;;5074189;28;20268;-76
2021/03/02 07:59:17;;;;;;;89.73;30.03;;;4.80;99.90;;;;;;5075073;28;20200;-76
2021/03/02 08:01:45;;;;;;;88.53;27.97;;;4.90;99.90;;;;;;5074247;28;20291;-76
2021/03/02 08:04:27;;;;;;;87.10;28.87;;;4.90;99.90;;;;;;5085333;28;20305;-76
2021/03/02 08:06:55;;;;;;;85.33;28.03;;;5.00;99.90;;;;;;5071626;28;20226;-76
2021/03/02 08:09:28;;;;;;;80.97;27.63;;;5.10;99.90;;;;;;5074238;28;20205;-76
2021/03/02 08:11:55;;;;;;;75.80;27.20;;;5.10;99.90;;;;;;5074313;28;20204;-76
2021/03/02 08:14:31;;;;;;;82.60;27.20;;;5.20;99.90;;;;;;5073684;28;20586;-76
2021/03/02 08:16:59;;;;;;;73.53;25.53;;;5.30;99.90;;;;;;5074128;28;20210;-76
2021/03/02 08:19:41;;;;;;;71.77;25.80;;;5.30;99.90;;;;;;5074108;28;20543;-76
2021/03/02 08:22:58;;;;;;;71.57;25.10;;;5.40;99.90;;;;;;5073793;28;20651;-76
2021/03/02 08:25:35;;;;;;;65.53;24.90;;;5.50;99.90;;;;;;5073938;28;20204;-75
2021/03/02 08:28:04;;;;;;;60.67;24.37;;;5.70;99.90;;;;;;5073677;28;20204;-76
2021/03/02 08:30:33;;;;;;;51.47;23.13;;;5.80;99.90;;;;;;5073271;28;20197;-76
2021/03/02 08:33:05;;;;;;;52.33;21.43;;;5.90;99.90;;;;;;5092835;28;20225;-76
2021/03/02 08:35:33;;;;;;;52.10;20.17;;;5.90;99.90;;;;;;5084042;28;20288;-76
2021/03/02 08:38:01;;;;;;;56.10;22.73;;;6.00;99.90;;;;;;5073865;28;20201;-76
2021/03/02 08:40:45;;;;;;;50.83;19.93;;;6.10;99.90;;;;;;5073445;28;20211;-76
2021/03/02 08:43:17;;;;;;;46.40;19.87;;;6.30;99.90;;;;;;5073855;28;20217;-76
2021/03/02 08:45:47;;;;;;;43.90;18.83;;;6.30;99.90;;;;;;5073086;28;20208;-76
2021/03/02 08:48:19;;;;;;;40.30;18.03;;;6.40;99.90;;;;;;5072684;28;20231;-76
2021/03/02 08:50:47;;;;;;;44.13;17.50;;;6.50;99.90;;;;;;5073458;28;20613;-76
2021/03/02 08:53:47;;;;;;;39.10;15.83;;;6.50;99.90;;;;;;5073179;28;20566;-76
2021/03/02 08:56:19;;;;;;;38.57;16.50;;;6.60;99.90;;;;;;5031109;28;20207;-76
2021/03/02 08:58:47;;;;;;;34.70;15.83;;;6.80;99.90;;;;;;5066082;28;20288;-76
2021/03/02 09:01:15;;;;;;;33.73;16.53;;;6.80;99.90;;;;;;5093017;28;20204;-76
2021/03/02 09:03:44;;;;;;;35.37;16.60;;;6.90;99.90;;;;;;5084012;28;20205;-76
2021/03/02 09:06:16;;;;;;;32.00;15.27;;;7.00;99.90;;;;;;5073111;28;20554;-76
2021/03/02 09:08:53;;;;;;;37.30;15.63;;;7.10;99.90;;;;;;5073532;28;20196;-76
2021/03/02 09:11:28;;;;;;;37.80;15.37;;;7.30;99.90;;;;;;5072909;28;20197;-76
2021/03/02 09:13:55;;;;;;;33.10;15.10;;;7.40;99.90;;;;;;5072898;28;20586;-76
2021/03/02 09:16:29;;;;;;;33.13;14.80;;;7.50;99.90;;;;;;5073039;28;20181;-76
2021/03/02 09:19:15;;;;;;;37.23;15.73;;;7.60;99.90;;;;;;5073034;28;20195;-76
2021/03/02 09:21:44;;;;;;;33.17;14.87;;;7.70;99.90;;;;;;5071148;28;20623;-76
2021/03/02 09:24:14;;;;;;;34.50;15.70;;;7.80;99.90;;;;;;5072791;28;20243;-76
2021/03/02 09:26:40;;;;;;;38.57;15.47;;;7.90;99.90;;;;;;5084185;28;20231;-76
2021/03/02 09:29:10;;;;;;;34.50;15.03;;;8.10;99.90;;;;;;5092917;28;20207;-76
2021/03/02 09:31:36;;;;;;;36.57;15.53;;;8.30;99.90;;;;;;5093272;28;20200;-76
2021/03/02 09:34:04;;;;;;;36.30;15.40;;;8.40;99.90;;;;;;5093086;28;20258;-76
2021/03/02 09:36:31;;;;;;;28.63;14.53;;;8.50;99.90;;;;;;5093113;28;20245;-75
2021/03/02 09:38:59;;;;;;;35.97;15.20;;;8.50;99.90;;;;;;5092870;28;20678;-76
2021/03/02 09:41:36;;;;;;;33.43;15.60;;;8.60;99.90;;;;;;5092764;28;20269;-76
2021/03/02 09:44:20;;;;;;;27.70;13.40;;;8.70;99.90;;;;;;5093194;28;20201;-76
2021/03/02 09:46:46;;;;;;;28.20;14.23;;;8.80;99.90;;;;;;5093652;28;20220;-76
2021/03/02 09:49:34;;;;;;;27.70;13.73;;;9.00;99.90;;;;;;5097221;28;20228;-76
2021/03/02 09:52:00;;;;;;;25.57;13.20;;;9.20;99.90;;;;;;5097031;28;20190;-76
2021/03/02 09:54:27;;;;;;;30.23;12.70;;;9.40;99.90;;;;;;5078755;28;20243;-76
2021/03/02 09:56:57;;;;;;;32.10;13.20;;;9.50;99.90;;;;;;5076721;28;20193;-76
2021/03/02 09:59:25;;;;;;;25.33;13.00;;;9.50;99.90;;;;;;5076864;28;20288;-76
2021/03/02 10:01:52;;;;;;;29.73;13.90;;;9.70;99.90;;;;;;5076437;28;20205;-76
2021/03/02 10:04:20;;;;;;;27.10;13.30;;;9.80;99.90;;;;;;5076753;28;20559;-76
2021/03/02 10:06:47;;;;;;;22.83;12.17;;;9.90;99.90;;;;;;5076632;28;20227;-76
2021/03/02 10:09:24;;;;;;;24.43;12.90;;;9.90;99.90;;;;;;5076544;28;20210;-76
2021/03/02 10:12:09;;;;;;;26.03;12.40;;;10.10;99.90;;;;;;5076569;28;20193;-76
2021/03/02 10:14:37;;;;;;;31.23;12.73;;;10.20;99.90;;;;;;5076154;28;20210;-76
2021/03/02 10:17:04;;;;;;;23.83;12.53;;;10.40;99.90;;;;;;5075508;28;20206;-76
2021/03/02 10:19:31;;;;;;;24.50;12.63;;;10.50;99.90;;;;;;5076502;28;20206;-76
2021/03/02 10:22:00;;;;;;;28.53;12.40;;;10.70;99.90;;;;;;5091873;28;20298;-76
2021/03/02 10:24:28;;;;;;;25.03;12.53;;;10.80;99.90;;;;;;5096861;28;20211;-76
2021/03/02 10:26:56;;;;;;;21.23;12.70;;;12.10;99.90;;;;;;5082807;28;20314;-76
2021/03/02 10:29:23;;;;;;;22.77;13.00;;;14.20;99.90;;;;;;5075927;28;20659;-76
2021/03/02 10:31:49;;;;;;;21.27;12.40;;;15.50;99.90;;;;;;5075838;28;20203;-76
2021/03/02 10:34:16;;;;;;;27.47;12.93;;;16.90;99.90;;;;;;5076215;28;20199;-76
2021/03/02 10:36:45;;;;;;;24.53;13.33;;;17.80;99.90;;;;;;5075914;28;20196;-76
2021/03/02 10:39:13;;;;;;;23.17;13.17;;;18.50;99.90;;;;;;5076188;28;20195;-76
2021/03/02 10:41:40;;;;;;;33.43;14.73;;;18.40;99.90;;;;;;5075889;28;20203;-76
2021/03/02 10:44:07;;;;;;;30.67;13.27;;;18.20;99.90;;;;;;5075545;28;20209;-76
2021/03/02 10:46:34;;;;;;;30.53;13.20;;;18.50;99.90;;;;;;5077904;28;20223;-76
2021/03/02 10:49:01;;;;;;;24.60;12.93;;;18.90;99.90;;;;;;5076764;28;20203;-76
2021/03/02 10:51:29;;;;;;;23.80;13.17;;;19.00;99.90;;;;;;5075114;28;20562;-76
2021/03/02 10:53:57;;;;;;;28.07;12.90;;;18.10;99.90;;;;;;5078066;28;20191;-75
2021/03/02 10:56:24;;;;;;;24.80;13.73;;;17.40;99.90;;;;;;5075365;28;20298;-76
2021/03/02 10:58:50;;;;;;;28.13;13.93;;;17.00;99.90;;;;;;5074608;28;20184;-76
2021/03/02 11:01:17;;;;;;;24.43;13.67;;;17.10;99.90;;;;;;5075180;28;20715;-76
2021/03/02 11:03:43;;;;;;;25.73;13.50;;;16.70;99.90;;;;;;5075435;28;20203;-76
2021/03/02 11:06:11;;;;;;;25.73;13.33;;;16.60;99.90;;;;;;5075485;28;20207;-75
2021/03/02 11:08:38;;;;;;;27.07;13.37;;;16.70;99.90;;;;;;5075392;28;20200;-76
2021/03/02 11:11:05;;;;;;;31.07;13.17;;;16.70;99.90;;;;;;5075009;28;20290;-76
2021/03/02 11:13:32;;;;;;;26.70;13.17;;;16.60;99.90;;;;;;5075113;28;20206;-76
2021/03/02 11:15:58;;;;;;;26.20;14.23;;;16.60;99.90;;;;;;5074391;28;20212;-76
2021/03/02 11:18:24;;;;;;;25.00;13.13;;;16.30;99.90;;;;;;5093342;28;20663;-76
2021/03/02 11:20:50;;;;;;;26.77;13.43;;;16.70;99.90;;;;;;5079512;28;20578;-75
2021/03/02 11:23:17;;;;;;;28.50;14.03;;;17.20;99.90;;;;;;5075281;28;20200;-76
2021/03/02 11:25:44;;;;;;;26.10;13.60;;;17.60;99.90;;;;;;5074899;28;20199;-76
2021/03/02 11:28:12;;;;;;;23.17;12.57;;;17.60;99.90;;;;;;5074902;28;20220;-76
2021/03/02 11:30:39;;;;;;;26.83;13.43;;;17.80;99.90;;;;;;5074971;28;20291;-76
2021/03/02 11:33:07;;;;;;;27.70;13.20;;;17.70;99.90;;;;;;5074530;28;20211;-76
2021/03/02 11:35:33;;;;;;;26.90;13.60;;;17.60;99.90;;;;;;5075037;28;20199;-76
2021/03/02 11:38:00;;;;;;;22.40;12.93;;;17.40;99.90;;;;;;5074709;28;20207;-76
2021/03/02 11:40:30;;;;;;;25.03;13.37;;;17.00;99.90;;;;;;5074604;28;20296;-76
2021/03/02 11:42:57;;;;;;;26.97;12.93;;;16.80;99.90;;;;;;5076257;28;20657;-76
2021/03/02 11:45:26;;;;;;;21.33;12.80;;;16.70;99.90;;;;;;5094902;28;20567;-76
2021/03/02 11:47:54;;;;;;;24.70;12.47;;;16.70;99.90;;;;;;5080481;28;20306;-76
2021/03/02 11:50:20;;;;;;;29.23;13.43;;;16.50;99.90;;;;;;5074340;28;20664;-76
2021/03/02 11:52:54;;;;;;;28.20;12.73;;;16.60;99.90;;;;;;5074444;28;20206;-76
2021/03/02 11:55:20;;;;;;;28.80;13.47;;;16.80;99.90;;;;;;5074278;28;20292;-76
2021/03/02 11:57:47;;;;;;;23.40;12.10;;;16.80;99.90;;;;;;5074452;28;20269;-76
2021/03/02 12:00:16;;;;;;;24.57;13.10;;;17.00;99.90;;;;;;5074403;28;20279;-76
2021/03/02 12:02:43;;;;;;;24.30;13.20;;;16.70;99.90;;;;;;5074386;28;20203;-76
2021/03/02 12:05:11;;;;;;;22.13;12.90;;;16.60;99.90;;;;;;5074559;28;20248;-76
2021/03/02 12:07:37;;;;;;;23.87;13.63;;;16.40;99.90;;;;;;5073788;28;20226;-76
2021/03/02 12:10:06;;;;;;;26.80;13.77;;;16.40;99.90;;;;;;5080043;28;20259;-76
2021/03/02 12:12:32;;;;;;;23.63;14.27;;;16.50;99.90;;;;;;5074725;28;20204;-76
2021/03/02 12:14:59;;;;;;;25.97;13.40;;;16.40;99.90;;;;;;5074078;28;20207;-76
2021/03/02 12:17:25;;;;;;;27.40;12.77;;;16.30;99.90;;;;;;5080130;28;20297;-76
2021/03/02 12:19:52;;;;;;;23.67;13.33;;;16.10;99.90;;;;;;5073258;28;20231;-76
2021/03/02 12:22:19;;;;;;;24.57;13.43;;;15.90;99.90;;;;;;5073718;28;20279;-76
2021/03/02 12:24:45;;;;;;;28.13;13.40;;;16.00;99.90;;;;;;5074044;28;20199;-76
2021/03/02 12:27:11;;;;;;;24.43;14.03;;;16.00;99.90;;;;;;5073605;28;20311;-76
2021/03/02 12:29:38;;;;;;;27.17;13.20;;;16.00;99.90;;;;;;5073893;28;20256;-76
2021/03/02 12:32:05;;;;;;;21.80;13.00;;;16.00;99.90;;;;;;5073883;28;20218;-76
2021/03/02 12:34:31;;;;;;;35.40;14.10;;;16.00;99.90;;;;;;5073721;28;20583;-76
2021/03/02 12:36:58;;;;;;;27.20;13.93;;;16.10;99.90;;;;;;5073497;28;20286;-76
2021/03/02 12:39:25;;;;;;;23.97;12.77;;;16.00;99.90;;;;;;5073356;28;20289;-76